createdAt,value
2024-02-08T00:01:10.962Z,4.77
2024-02-08T00:05:14.113Z,6.30
2024-02-08T00:09:15.880Z,4.67
2024-02-08T00:13:17.575Z,4.10
2024-02-08T00:17:19.267Z,3.40
2024-02-08T00:21:22.457Z,4.27
2024-02-08T00:25:24.313Z,3.90
2024-02-08T00:29:26.260Z,4.90
2024-02-08T00:33:27.950Z,4.30
2024-02-08T00:37:31.168Z,4.93
2024-02-08T00:41:33.971Z,4.87
2024-02-08T00:45:36.111Z,4.77
2024-02-08T00:49:38.170Z,5.17
2024-02-08T00:53:41.271Z,6.67
2024-02-08T00:57:43.014Z,5.87
2024-02-08T01:01:44.732Z,6.30
2024-02-08T01:05:46.499Z,5.37
2024-02-08T01:09:49.510Z,6.30
2024-02-08T01:13:51.431Z,7.37
2024-02-08T01:17:53.450Z,8.60
2024-02-08T01:21:56.246Z,6.80
2024-02-08T01:25:59.376Z,7.07
2024-02-08T01:30:01.373Z,11.30
2024-02-08T01:34:03.493Z,7.97
2024-02-08T01:38:05.248Z,6.93
2024-02-08T01:42:12.725Z,9.07
2024-02-08T01:46:14.487Z,6.90
2024-02-08T01:50:24.283Z,8.73
2024-02-08T01:54:26.724Z,7.30
2024-02-08T01:58:30.765Z,8.93
2024-02-08T02:02:32.516Z,7.57
2024-02-08T02:06:35.420Z,6.97
2024-02-08T02:10:39.139Z,7.93
2024-02-08T02:14:42.720Z,8.33
2024-02-08T02:18:44.319Z,7.13
2024-02-08T02:22:48.542Z,7.97
2024-02-08T02:26:50.273Z,10.13
2024-02-08T02:30:52.947Z,9.10
2024-02-08T02:34:55.134Z,8.47
2024-02-08T02:38:58.210Z,7.73
2024-02-08T02:43:00.113Z,9.03
2024-02-08T02:47:01.755Z,9.63
2024-02-08T02:51:03.890Z,6.93
2024-02-08T02:55:07.838Z,8.50
2024-02-08T02:59:10.516Z,8.37
2024-02-08T03:03:12.312Z,8.40
2024-02-08T03:07:13.957Z,8.07
2024-02-08T03:11:17.181Z,7.33
2024-02-08T03:15:19.862Z,9.27
2024-02-08T03:19:23.654Z,8.23
2024-02-08T03:23:25.985Z,9.53
2024-02-08T03:27:28.881Z,8.97
2024-02-08T03:31:30.657Z,8.67
2024-02-08T03:35:32.310Z,9.97
2024-02-08T03:39:33.958Z,10.60
2024-02-08T03:43:37.214Z,11.93
2024-02-08T03:47:38.999Z,9.53
2024-02-08T03:51:40.722Z,9.50
2024-02-08T03:55:42.731Z,14.77
2024-02-08T03:59:46.679Z,11.97
2024-02-08T04:03:48.281Z,15.33
2024-02-08T04:07:50.290Z,18.20
2024-02-08T04:11:52.039Z,18.03
2024-02-08T04:15:57.465Z,18.70
2024-02-08T04:20:00.941Z,14.67
2024-02-08T04:24:03.649Z,14.67
2024-02-08T04:28:07.512Z,14.50
2024-02-08T04:32:12.184Z,15.40
2024-02-08T04:36:14.984Z,20.57
2024-02-08T04:40:17.684Z,15.23
2024-02-08T04:44:19.361Z,14.77
2024-02-08T04:48:22.484Z,23.97
2024-02-08T04:52:24.777Z,28.67
2024-02-08T04:56:26.759Z,17.90
2024-02-08T05:00:28.560Z,21.93
2024-02-08T05:04:31.697Z,21.60
2024-02-08T05:08:33.412Z,16.93
2024-02-08T05:12:34.966Z,28.50
2024-02-08T05:16:37.668Z,29.00
2024-02-08T05:20:41.177Z,20.53
2024-02-08T05:24:42.940Z,24.23
2024-02-08T05:28:44.730Z,22.77
2024-02-08T05:32:46.543Z,21.57
2024-02-08T05:36:49.628Z,23.67
2024-02-08T05:40:51.442Z,31.20
2024-02-08T05:44:53.963Z,73.20
2024-02-08T05:48:56.657Z,85.70
2024-02-08T05:52:59.995Z,108.53
2024-02-08T05:57:02.404Z,37.23
2024-02-08T06:01:04.901Z,56.63
2024-02-08T06:05:06.973Z,38.33
2024-02-08T06:09:10.494Z,39.57
2024-02-08T06:13:13.465Z,29.57
2024-02-08T06:17:15.486Z,50.70
2024-02-08T06:21:17.130Z,34.63
2024-02-08T06:25:20.365Z,36.70
2024-02-08T06:29:22.213Z,31.50
2024-02-08T06:33:23.938Z,31.77
2024-02-08T06:37:25.786Z,26.47
2024-02-08T06:41:28.834Z,26.27
2024-02-08T06:45:30.728Z,26.33
2024-02-08T06:49:33.550Z,30.07
2024-02-08T06:53:38.525Z,25.27
2024-02-08T06:57:41.968Z,26.30
2024-02-08T07:01:44.388Z,26.67
2024-02-08T07:05:46.071Z,21.70
2024-02-08T07:09:47.893Z,27.10
2024-02-08T07:13:50.988Z,21.53
2024-02-08T07:17:53.247Z,22.10
2024-02-08T07:21:55.583Z,23.40
2024-02-08T07:25:57.559Z,24.30
2024-02-08T07:30:00.577Z,23.07
2024-02-08T07:34:02.508Z,24.80
2024-02-08T07:38:05.946Z,20.30
2024-02-08T07:42:07.816Z,24.70
2024-02-08T07:46:10.842Z,16.07
2024-02-08T07:50:12.756Z,18.90
2024-02-08T07:54:14.567Z,13.90
2024-02-08T07:58:16.269Z,18.47
2024-02-08T08:02:19.323Z,14.27
2024-02-08T08:06:21.052Z,12.93
2024-02-08T08:10:22.834Z,16.93
2024-02-08T08:14:24.837Z,13.53
2024-02-08T08:18:27.892Z,12.60
2024-02-08T08:22:29.653Z,12.80
2024-02-08T08:26:32.378Z,13.50
2024-02-08T08:30:34.392Z,15.57
2024-02-08T08:34:37.637Z,13.87
2024-02-08T08:38:39.436Z,16.87
2024-02-08T08:42:41.769Z,16.13
2024-02-08T08:46:44.591Z,12.00
2024-02-08T08:50:47.691Z,18.53
2024-02-08T08:54:49.251Z,13.00
2024-02-08T08:58:51.549Z,15.03
2024-02-08T09:02:53.396Z,12.67
2024-02-08T09:06:56.435Z,14.57
2024-02-08T09:10:58.324Z,14.70
2024-02-08T09:14:59.937Z,18.40
2024-02-08T09:19:03.122Z,16.57
2024-02-08T09:23:07.037Z,18.00
2024-02-08T09:27:08.637Z,19.40
2024-02-08T09:31:10.366Z,19.10
2024-02-08T09:35:12.348Z,18.60
2024-02-08T09:39:15.524Z,15.60
2024-02-08T09:43:17.245Z,17.50
2024-02-08T09:47:20.376Z,16.40
2024-02-08T09:51:24.480Z,17.43
2024-02-08T09:55:27.963Z,16.70
2024-02-08T09:59:30.168Z,16.10
2024-02-08T10:03:32.067Z,17.77
2024-02-08T10:07:34.113Z,17.00
2024-02-08T10:11:39.310Z,19.73
2024-02-08T10:15:41.197Z,23.30
2024-02-08T10:19:56.402Z,19.77
2024-02-08T10:23:59.034Z,19.30
2024-02-08T10:28:02.060Z,19.60
2024-02-08T10:32:05.646Z,19.53
2024-02-08T10:36:08.840Z,18.77
2024-02-08T10:40:18.221Z,15.87
2024-02-08T10:44:25.894Z,15.60
2024-02-08T10:48:30.532Z,15.03
2024-02-08T10:52:33.784Z,14.70
2024-02-08T10:56:36.553Z,15.97
2024-02-08T11:00:42.147Z,15.70
2024-02-08T11:04:44.824Z,13.57
2024-02-08T11:08:46.605Z,12.83
2024-02-08T11:12:52.231Z,12.07
2024-02-08T11:16:56.157Z,13.57
2024-02-08T11:21:00.030Z,12.70
2024-02-08T11:25:03.536Z,12.27
2024-02-08T11:29:05.765Z,9.47
2024-02-08T11:33:09.243Z,11.07
2024-02-08T11:37:14.681Z,11.97
2024-02-08T11:41:16.758Z,10.23
2024-02-08T11:45:19.437Z,9.73
2024-02-08T11:49:22.584Z,8.33
2024-02-08T11:53:37.122Z,8.20
2024-02-08T11:58:14.991Z,8.67
2024-02-08T12:02:24.992Z,10.77
2024-02-08T12:06:40.522Z,10.73
2024-02-08T12:10:53.054Z,10.03
2024-02-08T12:15:02.624Z,8.57
2024-02-08T12:19:06.452Z,6.77
2024-02-08T12:23:09.508Z,8.77
2024-02-08T12:27:16.924Z,7.33
2024-02-08T12:31:19.900Z,6.07
2024-02-08T12:35:25.856Z,5.37
2024-02-08T12:39:29.384Z,6.90
2024-02-08T12:43:31.591Z,9.03
2024-02-08T12:47:33.426Z,6.57
2024-02-08T12:51:36.877Z,9.43
2024-02-08T12:55:39.948Z,9.73
2024-02-08T12:59:42.919Z,6.27
2024-02-08T13:03:44.619Z,8.03
2024-02-08T13:07:56.656Z,6.33
2024-02-08T13:12:07.663Z,8.10
2024-02-08T13:16:09.400Z,10.07
2024-02-08T13:20:12.012Z,8.03
2024-02-08T13:24:13.792Z,9.77
2024-02-08T13:28:16.879Z,7.87
2024-02-08T13:32:18.452Z,11.67
2024-02-08T13:36:20.131Z,9.10
2024-02-08T13:40:24.633Z,10.30
2024-02-08T13:44:27.807Z,8.27
2024-02-08T13:48:29.820Z,9.37
2024-02-08T13:52:31.524Z,9.47
2024-02-08T13:56:33.253Z,7.73
2024-02-08T14:00:36.677Z,7.60
2024-02-08T14:04:38.519Z,8.53
2024-02-08T14:08:40.141Z,8.30
2024-02-08T14:12:41.674Z,9.87
2024-02-08T14:16:44.613Z,10.83
2024-02-08T14:20:46.663Z,9.57
2024-02-08T14:24:48.237Z,9.83
2024-02-08T14:28:49.931Z,8.90
2024-02-08T14:32:52.994Z,11.03
2024-02-08T14:36:54.622Z,9.67
2024-02-08T14:40:56.627Z,12.27
2024-02-08T14:44:58.321Z,8.83
2024-02-08T14:49:01.603Z,12.97
2024-02-08T14:53:07.104Z,9.30
2024-02-08T14:57:08.854Z,8.13
2024-02-08T15:01:10.697Z,8.90
2024-02-08T15:05:13.700Z,7.70
2024-02-08T15:09:15.373Z,9.17
2024-02-08T15:13:17.012Z,8.70
2024-02-08T15:17:18.727Z,10.73
2024-02-08T15:21:21.692Z,10.53
2024-02-08T15:25:23.365Z,12.03
2024-02-08T15:29:25.020Z,11.43
2024-02-08T15:33:26.973Z,12.57
2024-02-08T15:37:30.501Z,10.57
2024-02-08T15:41:32.255Z,9.27
2024-02-08T15:45:34.183Z,7.23
2024-02-08T15:49:35.890Z,8.57
2024-02-08T15:53:44.741Z,7.80
2024-02-08T15:57:46.781Z,5.20
2024-02-08T16:01:49.837Z,6.10
2024-02-08T16:05:51.592Z,7.73
2024-02-08T16:09:54.589Z,6.53
2024-02-08T16:13:56.355Z,6.50
2024-02-08T16:17:58.515Z,9.47
2024-02-08T16:22:00.315Z,13.87
2024-02-08T16:26:03.308Z,8.97
2024-02-08T16:30:06.463Z,8.27
2024-02-08T16:34:08.209Z,8.80
2024-02-08T16:38:10.145Z,9.37
2024-02-08T16:42:13.335Z,8.47
2024-02-08T16:46:15.108Z,7.40
2024-02-08T16:50:16.804Z,8.87
2024-02-08T16:54:18.490Z,6.50
2024-02-08T16:58:21.819Z,7.47
2024-02-08T17:02:23.695Z,9.47
2024-02-08T17:06:25.393Z,5.20
2024-02-08T17:10:27.427Z,7.27
2024-02-08T17:14:30.441Z,8.23
2024-02-08T17:18:32.334Z,4.77
2024-02-08T17:22:34.208Z,4.37
2024-02-08T17:26:36.191Z,5.27
2024-02-08T17:30:39.102Z,4.17
2024-02-08T17:34:40.961Z,4.93
2024-02-08T17:38:43.059Z,3.37
2024-02-08T17:42:44.964Z,2.73
2024-02-08T17:46:48.586Z,3.03
2024-02-08T17:50:50.539Z,5.27
2024-02-08T17:54:52.194Z,2.97
2024-02-08T17:58:54.181Z,3.50
2024-02-08T18:02:57.050Z,2.23
2024-02-08T18:06:59.197Z,4.20
2024-02-08T18:11:01.078Z,1.60
2024-02-08T18:15:03.607Z,1.37
2024-02-08T18:19:06.689Z,3.50
2024-02-08T18:23:08.442Z,3.77
2024-02-08T18:27:10.104Z,3.13
2024-02-08T18:31:11.703Z,1.13
2024-02-08T18:35:15.356Z,3.33
2024-02-08T18:39:17.051Z,1.67
2024-02-08T18:43:18.883Z,2.03
2024-02-08T18:47:20.789Z,2.90
2024-02-08T18:51:23.745Z,5.40
2024-02-08T18:55:25.463Z,3.27
2024-02-08T18:59:27.096Z,2.93
2024-02-08T19:03:29.710Z,1.93
2024-02-08T19:07:33.143Z,2.37
2024-02-08T19:11:34.869Z,1.77
2024-02-08T19:15:36.803Z,2.80
2024-02-08T19:19:38.626Z,2.93
2024-02-08T19:23:42.617Z,2.67
2024-02-08T19:27:44.209Z,2.70
2024-02-08T19:31:45.957Z,5.03
2024-02-08T19:35:47.756Z,3.33
2024-02-08T19:39:50.890Z,3.70
2024-02-08T19:43:52.602Z,3.70
2024-02-08T19:47:54.319Z,4.83
2024-02-08T19:51:56.198Z,2.50
2024-02-08T19:55:59.554Z,7.40
2024-02-08T20:00:01.233Z,2.67
2024-02-08T20:04:03.392Z,4.60
2024-02-08T20:08:05.688Z,2.13
2024-02-08T20:12:09.348Z,3.23
2024-02-08T20:16:11.102Z,4.03
2024-02-08T20:20:13.371Z,3.37
2024-02-08T20:24:16.276Z,4.10
2024-02-08T20:28:19.353Z,5.30
2024-02-08T20:32:21.513Z,3.93
2024-02-08T20:36:23.652Z,3.20
2024-02-08T20:40:25.691Z,2.80
2024-02-08T20:44:28.862Z,6.10
2024-02-08T20:48:30.617Z,4.30
2024-02-08T20:52:33.095Z,5.77
2024-02-08T20:56:34.738Z,6.53
2024-02-08T21:00:39.400Z,4.73
2024-02-08T21:04:42.304Z,5.80
2024-02-08T21:08:44.164Z,7.13
2024-02-08T21:12:45.893Z,5.27
2024-02-08T21:16:49.111Z,7.03
2024-02-08T21:20:50.979Z,6.83
2024-02-08T21:24:52.886Z,7.53
2024-02-08T21:28:54.855Z,6.77
2024-02-08T21:32:57.848Z,15.17
2024-02-08T21:36:59.521Z,8.40
2024-02-08T21:41:03.261Z,8.70
2024-02-08T21:45:07.159Z,10.70
2024-02-08T21:49:10.693Z,7.97
2024-02-08T21:53:12.551Z,7.57
2024-02-08T21:57:14.440Z,7.10
2024-02-08T22:01:38.389Z,10.27
2024-02-08T22:05:42.718Z,9.27
2024-02-08T22:09:46.712Z,12.27
2024-02-08T22:13:48.581Z,8.67
2024-02-08T22:17:51.774Z,6.20
2024-02-08T22:21:54.910Z,6.70
2024-02-08T22:25:56.904Z,9.43
2024-02-08T22:29:58.999Z,9.13
2024-02-08T22:34:00.766Z,9.10
2024-02-08T22:38:04.265Z,9.80
2024-02-08T22:42:06.128Z,7.90
2024-02-08T22:46:08.186Z,9.80
2024-02-08T22:50:11.218Z,10.70
2024-02-08T22:54:16.925Z,12.03
2024-02-08T22:58:22.725Z,11.33
2024-02-08T23:02:25.934Z,13.50
2024-02-08T23:06:27.803Z,10.77
2024-02-08T23:10:30.885Z,11.90
2024-02-08T23:14:32.894Z,15.63
2024-02-08T23:18:34.909Z,10.33
2024-02-08T23:22:36.859Z,10.53
2024-02-08T23:26:39.984Z,10.67
2024-02-08T23:30:41.672Z,11.03
2024-02-08T23:34:43.380Z,11.47
2024-02-08T23:38:45.015Z,12.10
2024-02-08T23:42:49.039Z,14.80
2024-02-08T23:46:50.773Z,12.77
2024-02-08T23:50:52.406Z,13.53
2024-02-08T23:54:54.071Z,17.43
2024-02-08T23:58:57.063Z,10.47
